sensor_id;sensor_type;location;lat;lon;timestamp;temperature;humidity
13835;DHT22;6988;52.614;13.500;2023-04-03T00:01:50;1.20;99.90
13835;DHT22;6988;52.614;13.500;2023-04-03T00:06:46;1.20;99.90
13835;DHT22;6988;52.614;13.500;2023-04-03T00:11:38;1.10;99.90
13835;DHT22;6988;52.614;13.500;2023-04-03T00:16:30;1.10;99.90
13835;DHT22;6988;52.614;13.500;2023-04-03T00:21:21;1.00;99.90
13835;DHT22;6988;52.614;13.500;2023-04-03T00:26:14;1.00;99.90
13835;DHT22;6988;52.614;13.500;2023-04-03T00:31:07;1.00;99.90
13835;DHT22;6988;52.614;13.500;2023-04-03T00:35:59;0.90;99.90
13835;DHT22;6988;52.614;13.500;2023-04-03T00:40:56;0.90;99.90
13835;DHT22;6988;52.614;13.500;2023-04-03T00:45:51;0.80;99.90
13835;DHT22;6988;52.614;13.500;2023-04-03T00:50:44;0.80;99.90
13835;DHT22;6988;52.614;13.500;2023-04-03T00:55:38;0.80;99.90
13835;DHT22;6988;52.614;13.500;2023-04-03T01:00:31;0.80;99.90
13835;DHT22;6988;52.614;13.500;2023-04-03T01:05:24;0.70;99.90
13835;DHT22;6988;52.614;13.500;2023-04-03T01:10:17;0.80;99.90
13835;DHT22;6988;52.614;13.500;2023-04-03T01:15:13;0.60;99.90
13835;DHT22;6988;52.614;13.500;2023-04-03T01:25:58;0.60;99.90
13835;DHT22;6988;52.614;13.500;2023-04-03T01:30:56;0.60;99.90
13835;DHT22;6988;52.614;13.500;2023-04-03T01:35:57;0.60;99.90
13835;DHT22;6988;52.614;13.500;2023-04-03T01:40:49;0.60;99.90
13835;DHT22;6988;52.614;13.500;2023-04-03T01:45:41;0.50;99.90
13835;DHT22;6988;52.614;13.500;2023-04-03T01:50:33;0.50;99.90
13835;DHT22;6988;52.614;13.500;2023-04-03T01:55:27;0.60;99.90
13835;DHT22;6988;52.614;13.500;2023-04-03T02:00:19;0.60;99.90
13835;DHT22;6988;52.614;13.500;2023-04-03T02:05:11;0.40;99.90
13835;DHT22;6988;52.614;13.500;2023-04-03T02:10:04;0.40;99.90
13835;DHT22;6988;52.614;13.500;2023-04-03T02:14:58;0.40;99.90
13835;DHT22;6988;52.614;13.500;2023-04-03T02:19:51;0.30;99.90
13835;DHT22;6988;52.614;13.500;2023-04-03T02:24:43;0.30;99.90
13835;DHT22;6988;52.614;13.500;2023-04-03T02:29:35;0.30;99.90
13835;DHT22;6988;52.614;13.500;2023-04-03T02:34:28;0.20;99.90
13835;DHT22;6988;52.614;13.500;2023-04-03T02:39:23;0.20;99.90
13835;DHT22;6988;52.614;13.500;2023-04-03T02:44:16;0.20;99.90
13835;DHT22;6988;52.614;13.500;2023-04-03T02:49:08;0.10;99.90
13835;DHT22;6988;52.614;13.500;2023-04-03T02:54:02;0.10;99.90
13835;DHT22;6988;52.614;13.500;2023-04-03T02:58:57;0.10;99.90
13835;DHT22;6988;52.614;13.500;2023-04-03T03:03:50;0.10;99.90
13835;DHT22;6988;52.614;13.500;2023-04-03T03:08:42;0.00;99.90
13835;DHT22;6988;52.614;13.500;2023-04-03T03:13:36;0.00;99.90
13835;DHT22;6988;52.614;13.500;2023-04-03T03:18:28;-0.10;99.90
13835;DHT22;6988;52.614;13.500;2023-04-03T03:23:21;-0.10;99.90
13835;DHT22;6988;52.614;13.500;2023-04-03T03:28:14;-0.10;99.90
13835;DHT22;6988;52.614;13.500;2023-04-03T03:33:08;-0.10;99.90
13835;DHT22;6988;52.614;13.500;2023-04-03T03:38:00;-0.10;99.90
13835;DHT22;6988;52.614;13.500;2023-04-03T03:42:51;-0.10;99.90
13835;DHT22;6988;52.614;13.500;2023-04-03T03:47:44;-0.10;99.90
13835;DHT22;6988;52.614;13.500;2023-04-03T03:52:37;-0.20;99.90
13835;DHT22;6988;52.614;13.500;2023-04-03T03:57:29;-0.20;99.90
13835;DHT22;6988;52.614;13.500;2023-04-03T04:02:22;-0.20;99.90
13835;DHT22;6988;52.614;13.500;2023-04-03T04:07:14;-0.20;99.90
13835;DHT22;6988;52.614;13.500;2023-04-03T04:12:08;-0.20;99.90
13835;DHT22;6988;52.614;13.500;2023-04-03T04:17:01;-0.30;99.90
13835;DHT22;6988;52.614;13.500;2023-04-03T04:21:53;-0.20;99.90
13835;DHT22;6988;52.614;13.500;2023-04-03T04:26:45;-0.30;99.90
13835;DHT22;6988;52.614;13.500;2023-04-03T04:31:40;-0.20;99.90
13835;DHT22;6988;52.614;13.500;2023-04-03T04:36:32;-0.30;99.90
13835;DHT22;6988;52.614;13.500;2023-04-03T04:41:24;-0.30;99.90
13835;DHT22;6988;52.614;13.500;2023-04-03T04:46:17;-0.30;99.90
13835;DHT22;6988;52.614;13.500;2023-04-03T04:51:16;-0.20;99.90
13835;DHT22;6988;52.614;13.500;2023-04-03T04:56:08;-0.20;99.90
13835;DHT22;6988;52.614;13.500;2023-04-03T05:01:04;-0.30;99.90
13835;DHT22;6988;52.614;13.500;2023-04-03T05:06:00;-0.20;99.90
13835;DHT22;6988;52.614;13.500;2023-04-03T05:10:55;-0.20;99.90
13835;DHT22;6988;52.614;13.500;2023-04-03T05:15:50;-0.20;99.90
13835;DHT22;6988;52.614;13.500;2023-04-03T05:20:42;-0.10;99.90
13835;DHT22;6988;52.614;13.500;2023-04-03T05:25:37;-0.20;99.90
13835;DHT22;6988;52.614;13.500;2023-04-03T05:30:31;0.00;99.90
13835;DHT22;6988;52.614;13.500;2023-04-03T05:35:23;0.00;99.90
13835;DHT22;6988;52.614;13.500;2023-04-03T05:40:20;0.10;99.90
13835;DHT22;6988;52.614;13.500;2023-04-03T05:45:15;0.40;99.90
13835;DHT22;6988;52.614;13.500;2023-04-03T05:50:10;0.30;99.90
13835;DHT22;6988;52.614;13.500;2023-04-03T05:55:02;0.50;99.90
13835;DHT22;6988;52.614;13.500;2023-04-03T05:59:57;0.60;99.90
13835;DHT22;6988;52.614;13.500;2023-04-03T06:04:50;0.70;99.90
13835;DHT22;6988;52.614;13.500;2023-04-03T06:09:45;0.80;99.90
13835;DHT22;6988;52.614;13.500;2023-04-03T06:14:37;1.00;99.90
13835;DHT22;6988;52.614;13.500;2023-04-03T06:19:28;1.20;99.90
13835;DHT22;6988;52.614;13.500;2023-04-03T06:24:21;1.50;99.90
13835;DHT22;6988;52.614;13.500;2023-04-03T06:29:15;1.60;99.90
13835;DHT22;6988;52.614;13.500;2023-04-03T06:34:07;1.90;99.90
13835;DHT22;6988;52.614;13.500;2023-04-03T06:38:59;2.20;99.90
13835;DHT22;6988;52.614;13.500;2023-04-03T06:43:52;2.60;99.90
13835;DHT22;6988;52.614;13.500;2023-04-03T06:48:45;2.90;99.90
13835;DHT22;6988;52.614;13.500;2023-04-03T06:53:37;3.20;99.90
13835;DHT22;6988;52.614;13.500;2023-04-03T06:58:28;3.40;99.90
13835;DHT22;6988;52.614;13.500;2023-04-03T07:03:20;3.90;99.90
13835;DHT22;6988;52.614;13.500;2023-04-03T07:08:13;4.10;99.90
13835;DHT22;6988;52.614;13.500;2023-04-03T07:13:05;4.40;99.90
13835;DHT22;6988;52.614;13.500;2023-04-03T07:17:57;4.30;99.90
13835;DHT22;6988;52.614;13.500;2023-04-03T07:22:49;3.90;99.90
13835;DHT22;6988;52.614;13.500;2023-04-03T07:27:42;4.10;99.90
13835;DHT22;6988;52.614;13.500;2023-04-03T07:32:34;4.60;99.90
13835;DHT22;6988;52.614;13.500;2023-04-03T07:37:27;4.90;99.90
13835;DHT22;6988;52.614;13.500;2023-04-03T07:42:18;5.00;99.90
13835;DHT22;6988;52.614;13.500;2023-04-03T07:47:12;4.70;99.90
13835;DHT22;6988;52.614;13.500;2023-04-03T07:52:06;4.20;99.90
13835;DHT22;6988;52.614;13.500;2023-04-03T07:56:59;4.10;99.90
13835;DHT22;6988;52.614;13.500;2023-04-03T08:01:51;4.50;99.90
13835;DHT22;6988;52.614;13.500;2023-04-03T08:06:48;4.90;99.90
13835;DHT22;6988;52.614;13.500;2023-04-03T08:11:40;5.00;99.90
13835;DHT22;6988;52.614;13.500;2023-04-03T08:16:31;4.80;99.90
13835;DHT22;6988;52.614;13.500;2023-04-03T08:21:24;4.60;99.90
13835;DHT22;6988;52.614;13.500;2023-04-03T08:26:20;4.60;99.90
13835;DHT22;6988;52.614;13.500;2023-04-03T08:31:15;4.60;99.90
13835;DHT22;6988;52.614;13.500;2023-04-03T08:36:17;4.50;99.90
13835;DHT22;6988;52.614;13.500;2023-04-03T08:41:15;4.40;99.90
13835;DHT22;6988;52.614;13.500;2023-04-03T08:46:17;4.60;99.90
13835;DHT22;6988;52.614;13.500;2023-04-03T08:51:15;4.40;99.90
13835;DHT22;6988;52.614;13.500;2023-04-03T08:56:11;4.40;99.90
13835;DHT22;6988;52.614;13.500;2023-04-03T09:01:17;4.80;99.90
13835;DHT22;6988;52.614;13.500;2023-04-03T09:06:14;4.70;99.90
13835;DHT22;6988;52.614;13.500;2023-04-03T09:11:13;4.70;99.90
13835;DHT22;6988;52.614;13.500;2023-04-03T09:16:25;5.30;99.90
13835;DHT22;6988;52.614;13.500;2023-04-03T09:21:29;5.50;99.90
13835;DHT22;6988;52.614;13.500;2023-04-03T09:26:28;5.40;99.90
13835;DHT22;6988;52.614;13.500;2023-04-03T09:31:28;5.20;99.90
13835;DHT22;6988;52.614;13.500;2023-04-03T09:36:41;5.10;99.90
13835;DHT22;6988;52.614;13.500;2023-04-03T09:41:34;5.00;99.90
13835;DHT22;6988;52.614;13.500;2023-04-03T09:46:31;5.10;99.90
13835;DHT22;6988;52.614;13.500;2023-04-03T09:51:26;5.30;99.90
13835;DHT22;6988;52.614;13.500;2023-04-03T09:56:22;5.30;99.90
13835;DHT22;6988;52.614;13.500;2023-04-03T10:01:25;5.40;99.90
13835;DHT22;6988;52.614;13.500;2023-04-03T10:06:24;5.50;99.90
13835;DHT22;6988;52.614;13.500;2023-04-03T10:11:16;5.70;99.90
13835;DHT22;6988;52.614;13.500;2023-04-03T10:16:15;6.00;99.90
13835;DHT22;6988;52.614;13.500;2023-04-03T10:21:14;6.20;99.90
13835;DHT22;6988;52.614;13.500;2023-04-03T10:26:20;6.20;99.90
13835;DHT22;6988;52.614;13.500;2023-04-03T10:31:25;6.20;99.90
13835;DHT22;6988;52.614;13.500;2023-04-03T10:36:31;6.30;99.90
13835;DHT22;6988;52.614;13.500;2023-04-03T10:41:38;6.50;99.90
13835;DHT22;6988;52.614;13.500;2023-04-03T10:46:43;6.30;99.90
13835;DHT22;6988;52.614;13.500;2023-04-03T10:51:43;6.00;99.90
13835;DHT22;6988;52.614;13.500;2023-04-03T10:56:42;5.70;99.90
13835;DHT22;6988;52.614;13.500;2023-04-03T11:01:41;5.90;99.90
13835;DHT22;6988;52.614;13.500;2023-04-03T11:06:39;5.60;99.90
13835;DHT22;6988;52.614;13.500;2023-04-03T11:11:38;5.70;99.90
13835;DHT22;6988;52.614;13.500;2023-04-03T11:16:38;5.70;99.90
13835;DHT22;6988;52.614;13.500;2023-04-03T11:21:36;6.00;99.90
13835;DHT22;6988;52.614;13.500;2023-04-03T11:26:35;6.10;99.90
13835;DHT22;6988;52.614;13.500;2023-04-03T11:31:42;6.30;99.90
13835;DHT22;6988;52.614;13.500;2023-04-03T11:36:51;6.50;99.90
13835;DHT22;6988;52.614;13.500;2023-04-03T11:41:47;6.50;99.90
13835;DHT22;6988;52.614;13.500;2023-04-03T11:46:51;6.40;99.90
13835;DHT22;6988;52.614;13.500;2023-04-03T11:51:45;6.50;99.90
13835;DHT22;6988;52.614;13.500;2023-04-03T11:56:37;6.40;99.90
13835;DHT22;6988;52.614;13.500;2023-04-03T12:01:46;6.30;99.90
13835;DHT22;6988;52.614;13.500;2023-04-03T12:06:51;6.50;99.90
13835;DHT22;6988;52.614;13.500;2023-04-03T12:11:49;6.50;99.90
13835;DHT22;6988;52.614;13.500;2023-04-03T12:16:45;6.70;99.90
13835;DHT22;6988;52.614;13.500;2023-04-03T12:22:05;6.90;99.90
13835;DHT22;6988;52.614;13.500;2023-04-03T12:27:11;7.30;99.90
13835;DHT22;6988;52.614;13.500;2023-04-03T12:32:17;7.40;99.90
13835;DHT22;6988;52.614;13.500;2023-04-03T12:37:30;7.70;99.90
13835;DHT22;6988;52.614;13.500;2023-04-03T12:42:45;7.50;99.90
13835;DHT22;6988;52.614;13.500;2023-04-03T12:47:49;6.70;99.90
13835;DHT22;6988;52.614;13.500;2023-04-03T12:52:49;6.70;99.90
13835;DHT22;6988;52.614;13.500;2023-04-03T12:57:46;6.70;99.90
13835;DHT22;6988;52.614;13.500;2023-04-03T13:02:37;6.70;99.90
13835;DHT22;6988;52.614;13.500;2023-04-03T13:07:31;6.80;99.90
13835;DHT22;6988;52.614;13.500;2023-04-03T13:12:29;6.80;99.90
13835;DHT22;6988;52.614;13.500;2023-04-03T13:17:21;6.70;99.90
13835;DHT22;6988;52.614;13.500;2023-04-03T13:22:24;6.70;99.90
13835;DHT22;6988;52.614;13.500;2023-04-03T13:27:19;6.60;99.90
13835;DHT22;6988;52.614;13.500;2023-04-03T13:32:18;6.40;99.90
13835;DHT22;6988;52.614;13.500;2023-04-03T13:37:20;6.30;99.90
13835;DHT22;6988;52.614;13.500;2023-04-03T13:42:21;6.30;99.90
13835;DHT22;6988;52.614;13.500;2023-04-03T13:47:18;6.30;99.90
13835;DHT22;6988;52.614;13.500;2023-04-03T13:52:26;6.30;99.90
13835;DHT22;6988;52.614;13.500;2023-04-03T13:57:20;6.30;99.90
13835;DHT22;6988;52.614;13.500;2023-04-03T14:02:31;6.30;99.90
13835;DHT22;6988;52.614;13.500;2023-04-03T14:07:25;6.20;99.90
13835;DHT22;6988;52.614;13.500;2023-04-03T14:12:21;6.40;99.90
13835;DHT22;6988;52.614;13.500;2023-04-03T14:17:20;6.50;99.90
13835;DHT22;6988;52.614;13.500;2023-04-03T14:22:18;7.10;99.90
13835;DHT22;6988;52.614;13.500;2023-04-03T14:27:17;7.50;99.90
13835;DHT22;6988;52.614;13.500;2023-04-03T14:32:11;7.40;99.90
13835;DHT22;6988;52.614;13.500;2023-04-03T14:37:10;7.20;99.90
13835;DHT22;6988;52.614;13.500;2023-04-03T14:42:03;6.70;99.90
13835;DHT22;6988;52.614;13.500;2023-04-03T14:46:55;6.50;99.90
13835;DHT22;6988;52.614;13.500;2023-04-03T14:51:47;6.40;99.90
13835;DHT22;6988;52.614;13.500;2023-04-03T14:56:41;6.30;99.90
13835;DHT22;6988;52.614;13.500;2023-04-03T15:01:34;6.20;99.90
13835;DHT22;6988;52.614;13.500;2023-04-03T15:06:26;6.10;99.90
13835;DHT22;6988;52.614;13.500;2023-04-03T15:11:18;5.90;99.90
13835;DHT22;6988;52.614;13.500;2023-04-03T15:16:16;5.80;99.90
13835;DHT22;6988;52.614;13.500;2023-04-03T15:21:09;5.70;99.90
13835;DHT22;6988;52.614;13.500;2023-04-03T15:26:02;5.70;99.90
13835;DHT22;6988;52.614;13.500;2023-04-03T15:30:54;5.60;99.90
13835;DHT22;6988;52.614;13.500;2023-04-03T15:35:47;5.60;99.90
13835;DHT22;6988;52.614;13.500;2023-04-03T15:40:39;5.60;99.90
13835;DHT22;6988;52.614;13.500;2023-04-03T15:45:35;5.50;99.90
13835;DHT22;6988;52.614;13.500;2023-04-03T15:50:28;5.50;99.90
13835;DHT22;6988;52.614;13.500;2023-04-03T15:55:22;5.60;99.90
13835;DHT22;6988;52.614;13.500;2023-04-03T16:00:14;5.70;99.90
13835;DHT22;6988;52.614;13.500;2023-04-03T16:05:07;6.00;99.90
13835;DHT22;6988;52.614;13.500;2023-04-03T16:10:01;6.10;99.90
13835;DHT22;6988;52.614;13.500;2023-04-03T16:14:54;6.10;99.90
13835;DHT22;6988;52.614;13.500;2023-04-03T16:19:46;6.00;99.90
13835;DHT22;6988;52.614;13.500;2023-04-03T16:24:37;5.80;99.90
13835;DHT22;6988;52.614;13.500;2023-04-03T16:29:29;5.60;99.90
13835;DHT22;6988;52.614;13.500;2023-04-03T16:34:22;5.60;99.90
13835;DHT22;6988;52.614;13.500;2023-04-03T16:39:15;5.30;99.90
13835;DHT22;6988;52.614;13.500;2023-04-03T16:44:07;5.20;99.90
13835;DHT22;6988;52.614;13.500;2023-04-03T16:48:59;5.20;99.90
13835;DHT22;6988;52.614;13.500;2023-04-03T16:53:52;5.10;99.90
13835;DHT22;6988;52.614;13.500;2023-04-03T16:58:44;5.10;99.90
13835;DHT22;6988;52.614;13.500;2023-04-03T17:03:35;4.90;99.90
13835;DHT22;6988;52.614;13.500;2023-04-03T17:08:27;5.00;99.90
13835;DHT22;6988;52.614;13.500;2023-04-03T17:13:20;5.00;99.90
13835;DHT22;6988;52.614;13.500;2023-04-03T17:18:12;4.90;99.90
13835;DHT22;6988;52.614;13.500;2023-04-03T17:23:05;4.80;99.90
13835;DHT22;6988;52.614;13.500;2023-04-03T17:27:57;4.80;99.90
13835;DHT22;6988;52.614;13.500;2023-04-03T17:32:50;4.80;99.90
13835;DHT22;6988;52.614;13.500;2023-04-03T17:37:42;4.70;99.90
13835;DHT22;6988;52.614;13.500;2023-04-03T17:42:34;4.80;99.90
13835;DHT22;6988;52.614;13.500;2023-04-03T17:47:26;4.60;99.90
13835;DHT22;6988;52.614;13.500;2023-04-03T17:52:19;4.50;99.90
13835;DHT22;6988;52.614;13.500;2023-04-03T17:57:13;4.40;99.90
13835;DHT22;6988;52.614;13.500;2023-04-03T18:02:05;4.30;99.90
13835;DHT22;6988;52.614;13.500;2023-04-03T18:06:56;4.20;99.90
13835;DHT22;6988;52.614;13.500;2023-04-03T18:11:50;4.30;99.90
13835;DHT22;6988;52.614;13.500;2023-04-03T18:16:43;4.10;99.90
13835;DHT22;6988;52.614;13.500;2023-04-03T18:21:35;4.10;99.90
13835;DHT22;6988;52.614;13.500;2023-04-03T18:26:28;4.00;99.90
13835;DHT22;6988;52.614;13.500;2023-04-03T18:31:23;3.90;99.90
13835;DHT22;6988;52.614;13.500;2023-04-03T18:36:16;3.80;99.90
13835;DHT22;6988;52.614;13.500;2023-04-03T18:41:08;3.80;99.90
13835;DHT22;6988;52.614;13.500;2023-04-03T18:46:00;3.80;99.90
13835;DHT22;6988;52.614;13.500;2023-04-03T18:50:54;3.70;99.90
13835;DHT22;6988;52.614;13.500;2023-04-03T18:55:46;3.70;99.90
13835;DHT22;6988;52.614;13.500;2023-04-03T19:00:39;3.70;99.90
13835;DHT22;6988;52.614;13.500;2023-04-03T19:05:32;3.60;99.90
13835;DHT22;6988;52.614;13.500;2023-04-03T19:10:25;3.60;99.90
13835;DHT22;6988;52.614;13.500;2023-04-03T19:15:18;3.60;99.90
13835;DHT22;6988;52.614;13.500;2023-04-03T19:20:12;3.50;99.90
13835;DHT22;6988;52.614;13.500;2023-04-03T19:25:07;3.60;99.90
13835;DHT22;6988;52.614;13.500;2023-04-03T19:30:01;3.60;99.90
13835;DHT22;6988;52.614;13.500;2023-04-03T19:34:52;3.50;99.90
13835;DHT22;6988;52.614;13.500;2023-04-03T19:39:45;3.40;99.90
13835;DHT22;6988;52.614;13.500;2023-04-03T19:44:37;3.40;99.90
13835;DHT22;6988;52.614;13.500;2023-04-03T19:49:30;3.30;99.90
13835;DHT22;6988;52.614;13.500;2023-04-03T19:54:22;3.20;99.90
13835;DHT22;6988;52.614;13.500;2023-04-03T19:59:15;3.20;99.90
13835;DHT22;6988;52.614;13.500;2023-04-03T20:04:08;3.10;99.90
13835;DHT22;6988;52.614;13.500;2023-04-03T20:09:01;3.10;99.90
13835;DHT22;6988;52.614;13.500;2023-04-03T20:13:54;2.90;99.90
13835;DHT22;6988;52.614;13.500;2023-04-03T20:18:47;3.00;99.90
13835;DHT22;6988;52.614;13.500;2023-04-03T20:23:39;2.80;99.90
13835;DHT22;6988;52.614;13.500;2023-04-03T20:28:32;2.80;99.90
13835;DHT22;6988;52.614;13.500;2023-04-03T20:33:24;2.70;99.90
13835;DHT22;6988;52.614;13.500;2023-04-03T20:38:17;2.70;99.90
13835;DHT22;6988;52.614;13.500;2023-04-03T20:43:10;2.60;99.90
13835;DHT22;6988;52.614;13.500;2023-04-03T20:48:03;2.50;99.90
13835;DHT22;6988;52.614;13.500;2023-04-03T20:52:55;2.50;99.90
13835;DHT22;6988;52.614;13.500;2023-04-03T20:57:47;2.40;99.90
13835;DHT22;6988;52.614;13.500;2023-04-03T21:02:40;2.40;99.90
13835;DHT22;6988;52.614;13.500;2023-04-03T21:19:12;2.20;99.90
13835;DHT22;6988;52.614;13.500;2023-04-03T21:24:06;2.10;99.90
13835;DHT22;6988;52.614;13.500;2023-04-03T21:28:59;2.00;99.90
13835;DHT22;6988;52.614;13.500;2023-04-03T21:33:51;1.90;99.90
13835;DHT22;6988;52.614;13.500;2023-04-03T21:38:44;2.00;99.90
13835;DHT22;6988;52.614;13.500;2023-04-03T21:43:37;1.80;99.90
13835;DHT22;6988;52.614;13.500;2023-04-03T22:04:01;1.40;99.90
13835;DHT22;6988;52.614;13.500;2023-04-03T22:08:53;1.20;99.90
13835;DHT22;6988;52.614;13.500;2023-04-03T22:13:50;1.10;99.90
13835;DHT22;6988;52.614;13.500;2023-04-03T22:18:43;1.10;99.90
13835;DHT22;6988;52.614;13.500;2023-04-03T22:23:36;1.00;99.90
13835;DHT22;6988;52.614;13.500;2023-04-03T22:28:30;1.00;99.90
13835;DHT22;6988;52.614;13.500;2023-04-03T22:33:23;0.90;99.90
13835;DHT22;6988;52.614;13.500;2023-04-03T22:38:15;0.90;99.90
13835;DHT22;6988;52.614;13.500;2023-04-03T22:43:09;0.70;99.90
13835;DHT22;6988;52.614;13.500;2023-04-03T22:48:02;0.80;99.90
13835;DHT22;6988;52.614;13.500;2023-04-03T22:52:54;0.70;99.90
13835;DHT22;6988;52.614;13.500;2023-04-03T22:57:46;0.70;99.90
13835;DHT22;6988;52.614;13.500;2023-04-03T23:02:40;0.60;99.90
13835;DHT22;6988;52.614;13.500;2023-04-03T23:07:32;0.60;99.90
13835;DHT22;6988;52.614;13.500;2023-04-03T23:12:25;0.50;99.90
13835;DHT22;6988;52.614;13.500;2023-04-03T23:17:17;0.50;99.90
13835;DHT22;6988;52.614;13.500;2023-04-03T23:22:10;0.40;99.90
13835;DHT22;6988;52.614;13.500;2023-04-03T23:27:04;0.40;99.90
13835;DHT22;6988;52.614;13.500;2023-04-03T23:32:00;0.30;99.90
13835;DHT22;6988;52.614;13.500;2023-04-03T23:36:52;0.30;99.90
13835;DHT22;6988;52.614;13.500;2023-04-03T23:41:45;0.30;99.90
13835;DHT22;6988;52.614;13.500;2023-04-03T23:46:37;0.20;99.90
13835;DHT22;6988;52.614;13.500;2023-04-03T23:51:30;0.20;99.90
13835;DHT22;6988;52.614;13.500;2023-04-03T23:56:22;0.10;99.90
